sensor_id;sensor_type;location;lat;lon;timestamp;temperature;humidity
63313;DHT22;49442;45.640;13.812;2024-02-16T00:00:25;6.50;99.90
63313;DHT22;49442;45.640;13.812;2024-02-16T00:02:50;6.50;99.90
63313;DHT22;49442;45.640;13.812;2024-02-16T00:05:16;6.50;99.90
63313;DHT22;49442;45.640;13.812;2024-02-16T00:07:42;6.60;99.90
63313;DHT22;49442;45.640;13.812;2024-02-16T00:10:09;6.60;99.90
63313;DHT22;49442;45.640;13.812;2024-02-16T00:12:35;6.70;99.90
63313;DHT22;49442;45.640;13.812;2024-02-16T00:15:02;6.80;99.90
63313;DHT22;49442;45.640;13.812;2024-02-16T00:17:28;6.80;99.90
63313;DHT22;49442;45.640;13.812;2024-02-16T00:19:55;6.80;99.90
63313;DHT22;49442;45.640;13.812;2024-02-16T00:22:20;6.70;99.90
63313;DHT22;49442;45.640;13.812;2024-02-16T00:24:46;6.70;99.90
63313;DHT22;49442;45.640;13.812;2024-02-16T00:27:13;6.70;99.90
63313;DHT22;49442;45.640;13.812;2024-02-16T00:29:40;6.80;99.90
63313;DHT22;49442;45.640;13.812;2024-02-16T00:32:05;6.70;99.90
63313;DHT22;49442;45.640;13.812;2024-02-16T00:34:32;6.50;99.90
63313;DHT22;49442;45.640;13.812;2024-02-16T00:36:58;6.40;99.90
63313;DHT22;49442;45.640;13.812;2024-02-16T00:39:23;6.40;99.90
63313;DHT22;49442;45.640;13.812;2024-02-16T00:41:50;6.50;99.90
63313;DHT22;49442;45.640;13.812;2024-02-16T00:44:17;6.40;99.90
63313;DHT22;49442;45.640;13.812;2024-02-16T00:46:43;6.40;99.90
63313;DHT22;49442;45.640;13.812;2024-02-16T00:49:09;6.50;99.90
63313;DHT22;49442;45.640;13.812;2024-02-16T00:51:36;6.50;99.90
63313;DHT22;49442;45.640;13.812;2024-02-16T00:54:02;6.50;99.90
63313;DHT22;49442;45.640;13.812;2024-02-16T00:56:29;6.50;99.90
63313;DHT22;49442;45.640;13.812;2024-02-16T00:58:55;6.40;99.90
63313;DHT22;49442;45.640;13.812;2024-02-16T01:01:21;6.50;99.90
63313;DHT22;49442;45.640;13.812;2024-02-16T01:03:48;6.40;99.90
63313;DHT22;49442;45.640;13.812;2024-02-16T01:06:14;6.40;99.90
63313;DHT22;49442;45.640;13.812;2024-02-16T01:08:40;6.40;99.90
63313;DHT22;49442;45.640;13.812;2024-02-16T01:11:06;6.50;99.90
63313;DHT22;49442;45.640;13.812;2024-02-16T01:13:33;6.50;99.90
63313;DHT22;49442;45.640;13.812;2024-02-16T01:15:58;6.50;99.90
63313;DHT22;49442;45.640;13.812;2024-02-16T01:18:25;6.60;99.90
63313;DHT22;49442;45.640;13.812;2024-02-16T01:20:51;6.60;99.90
63313;DHT22;49442;45.640;13.812;2024-02-16T01:23:17;6.60;99.90
63313;DHT22;49442;45.640;13.812;2024-02-16T01:25:43;6.50;99.90
63313;DHT22;49442;45.640;13.812;2024-02-16T01:28:08;6.50;99.90
63313;DHT22;49442;45.640;13.812;2024-02-16T01:30:34;6.60;99.90
63313;DHT22;49442;45.640;13.812;2024-02-16T01:33:00;6.50;99.90
63313;DHT22;49442;45.640;13.812;2024-02-16T01:35:25;6.40;99.90
63313;DHT22;49442;45.640;13.812;2024-02-16T01:37:51;6.40;99.90
63313;DHT22;49442;45.640;13.812;2024-02-16T01:40:17;6.40;99.90
63313;DHT22;49442;45.640;13.812;2024-02-16T01:42:43;6.30;99.90
63313;DHT22;49442;45.640;13.812;2024-02-16T01:45:10;6.30;99.90
63313;DHT22;49442;45.640;13.812;2024-02-16T01:47:37;6.30;99.90
63313;DHT22;49442;45.640;13.812;2024-02-16T01:50:04;6.20;99.90
63313;DHT22;49442;45.640;13.812;2024-02-16T01:52:31;6.10;99.90
63313;DHT22;49442;45.640;13.812;2024-02-16T01:54:59;6.10;99.90
63313;DHT22;49442;45.640;13.812;2024-02-16T01:57:28;6.10;99.90
63313;DHT22;49442;45.640;13.812;2024-02-16T01:59:54;6.20;99.90
63313;DHT22;49442;45.640;13.812;2024-02-16T02:02:19;6.20;99.90
63313;DHT22;49442;45.640;13.812;2024-02-16T02:04:45;6.10;99.90
63313;DHT22;49442;45.640;13.812;2024-02-16T02:07:13;6.10;99.90
63313;DHT22;49442;45.640;13.812;2024-02-16T02:09:39;6.10;99.90
63313;DHT22;49442;45.640;13.812;2024-02-16T02:12:04;6.10;99.90
63313;DHT22;49442;45.640;13.812;2024-02-16T02:14:30;6.20;99.90
63313;DHT22;49442;45.640;13.812;2024-02-16T02:16:56;6.20;99.90
63313;DHT22;49442;45.640;13.812;2024-02-16T02:19:21;6.20;99.90
63313;DHT22;49442;45.640;13.812;2024-02-16T02:21:47;6.10;99.90
63313;DHT22;49442;45.640;13.812;2024-02-16T02:24:13;6.00;99.90
63313;DHT22;49442;45.640;13.812;2024-02-16T02:26:39;6.00;99.90
63313;DHT22;49442;45.640;13.812;2024-02-16T02:29:05;5.90;99.90
63313;DHT22;49442;45.640;13.812;2024-02-16T02:31:30;5.90;99.90
63313;DHT22;49442;45.640;13.812;2024-02-16T02:33:56;5.80;99.90
63313;DHT22;49442;45.640;13.812;2024-02-16T02:36:22;5.80;99.90
63313;DHT22;49442;45.640;13.812;2024-02-16T02:38:47;5.80;99.90
63313;DHT22;49442;45.640;13.812;2024-02-16T02:41:13;5.80;99.90
63313;DHT22;49442;45.640;13.812;2024-02-16T02:43:41;5.80;99.90
63313;DHT22;49442;45.640;13.812;2024-02-16T02:46:07;5.90;99.90
63313;DHT22;49442;45.640;13.812;2024-02-16T02:48:33;5.90;99.90
63313;DHT22;49442;45.640;13.812;2024-02-16T02:50:59;5.80;99.90
63313;DHT22;49442;45.640;13.812;2024-02-16T02:53:28;5.70;99.90
63313;DHT22;49442;45.640;13.812;2024-02-16T02:55:54;5.80;99.90
63313;DHT22;49442;45.640;13.812;2024-02-16T02:58:20;5.90;99.90
63313;DHT22;49442;45.640;13.812;2024-02-16T03:00:45;5.80;99.90
63313;DHT22;49442;45.640;13.812;2024-02-16T03:03:11;5.70;99.90
63313;DHT22;49442;45.640;13.812;2024-02-16T03:05:41;5.60;99.90
63313;DHT22;49442;45.640;13.812;2024-02-16T03:08:07;5.70;99.90
63313;DHT22;49442;45.640;13.812;2024-02-16T03:10:33;5.60;99.90
63313;DHT22;49442;45.640;13.812;2024-02-16T03:13:03;5.70;99.90
63313;DHT22;49442;45.640;13.812;2024-02-16T03:15:29;5.60;99.90
63313;DHT22;49442;45.640;13.812;2024-02-16T03:17:58;5.60;99.90
63313;DHT22;49442;45.640;13.812;2024-02-16T03:20:23;5.70;99.90
63313;DHT22;49442;45.640;13.812;2024-02-16T03:22:49;5.60;99.90
63313;DHT22;49442;45.640;13.812;2024-02-16T03:25:14;5.60;99.90
63313;DHT22;49442;45.640;13.812;2024-02-16T03:27:40;5.60;99.90
63313;DHT22;49442;45.640;13.812;2024-02-16T03:30:07;5.60;99.90
63313;DHT22;49442;45.640;13.812;2024-02-16T03:32:33;5.40;99.90
63313;DHT22;49442;45.640;13.812;2024-02-16T03:34:59;5.40;99.90
63313;DHT22;49442;45.640;13.812;2024-02-16T03:37:25;5.40;99.90
63313;DHT22;49442;45.640;13.812;2024-02-16T03:39:51;5.40;99.90
63313;DHT22;49442;45.640;13.812;2024-02-16T03:42:19;5.40;99.90
63313;DHT22;49442;45.640;13.812;2024-02-16T03:44:45;5.40;99.90
63313;DHT22;49442;45.640;13.812;2024-02-16T03:47:11;5.40;99.90
63313;DHT22;49442;45.640;13.812;2024-02-16T03:49:37;5.30;99.90
63313;DHT22;49442;45.640;13.812;2024-02-16T03:52:03;5.20;99.90
63313;DHT22;49442;45.640;13.812;2024-02-16T03:54:29;5.20;99.90
63313;DHT22;49442;45.640;13.812;2024-02-16T03:56:55;5.20;99.90
63313;DHT22;49442;45.640;13.812;2024-02-16T03:59:21;5.20;99.90
63313;DHT22;49442;45.640;13.812;2024-02-16T04:01:47;5.30;99.90
63313;DHT22;49442;45.640;13.812;2024-02-16T04:04:12;5.40;99.90
63313;DHT22;49442;45.640;13.812;2024-02-16T04:06:39;5.40;99.90
63313;DHT22;49442;45.640;13.812;2024-02-16T04:09:05;5.30;99.90
63313;DHT22;49442;45.640;13.812;2024-02-16T04:11:32;5.20;99.90
63313;DHT22;49442;45.640;13.812;2024-02-16T04:13:58;5.10;99.90
63313;DHT22;49442;45.640;13.812;2024-02-16T04:16:23;5.00;99.90
63313;DHT22;49442;45.640;13.812;2024-02-16T04:18:51;5.00;99.90
63313;DHT22;49442;45.640;13.812;2024-02-16T04:21:17;5.10;99.90
63313;DHT22;49442;45.640;13.812;2024-02-16T04:23:43;5.10;99.90
63313;DHT22;49442;45.640;13.812;2024-02-16T04:26:08;5.10;99.90
63313;DHT22;49442;45.640;13.812;2024-02-16T04:28:35;5.00;99.90
63313;DHT22;49442;45.640;13.812;2024-02-16T04:31:00;5.10;99.90
63313;DHT22;49442;45.640;13.812;2024-02-16T04:33:26;5.20;99.90
63313;DHT22;49442;45.640;13.812;2024-02-16T04:35:52;5.20;99.90
63313;DHT22;49442;45.640;13.812;2024-02-16T04:38:18;5.10;99.90
63313;DHT22;49442;45.640;13.812;2024-02-16T04:40:44;5.00;99.90
63313;DHT22;49442;45.640;13.812;2024-02-16T04:43:09;5.00;99.90
63313;DHT22;49442;45.640;13.812;2024-02-16T04:45:35;5.10;99.90
63313;DHT22;49442;45.640;13.812;2024-02-16T04:48:05;5.10;99.90
63313;DHT22;49442;45.640;13.812;2024-02-16T04:50:34;5.20;99.90
63313;DHT22;49442;45.640;13.812;2024-02-16T04:53:01;5.30;99.90
63313;DHT22;49442;45.640;13.812;2024-02-16T04:55:30;5.40;99.90
63313;DHT22;49442;45.640;13.812;2024-02-16T04:57:56;5.40;99.90
63313;DHT22;49442;45.640;13.812;2024-02-16T05:00:22;5.50;99.90
63313;DHT22;49442;45.640;13.812;2024-02-16T05:02:50;5.50;99.90
63313;DHT22;49442;45.640;13.812;2024-02-16T05:05:15;5.50;99.90
63313;DHT22;49442;45.640;13.812;2024-02-16T05:07:42;5.50;99.90
63313;DHT22;49442;45.640;13.812;2024-02-16T05:10:09;5.50;99.90
63313;DHT22;49442;45.640;13.812;2024-02-16T05:12:35;5.50;99.90
63313;DHT22;49442;45.640;13.812;2024-02-16T05:15:00;5.40;99.90
63313;DHT22;49442;45.640;13.812;2024-02-16T05:17:26;5.40;99.90
63313;DHT22;49442;45.640;13.812;2024-02-16T05:19:52;5.40;99.90
63313;DHT22;49442;45.640;13.812;2024-02-16T05:22:19;5.40;99.90
63313;DHT22;49442;45.640;13.812;2024-02-16T05:24:47;5.40;99.90
63313;DHT22;49442;45.640;13.812;2024-02-16T05:27:13;5.40;99.90
63313;DHT22;49442;45.640;13.812;2024-02-16T05:29:39;5.40;99.90
63313;DHT22;49442;45.640;13.812;2024-02-16T05:32:05;5.40;99.90
63313;DHT22;49442;45.640;13.812;2024-02-16T05:34:31;5.40;99.90
63313;DHT22;49442;45.640;13.812;2024-02-16T05:37:04;5.40;99.90
63313;DHT22;49442;45.640;13.812;2024-02-16T05:39:37;5.40;99.90
63313;DHT22;49442;45.640;13.812;2024-02-16T05:42:22;5.40;99.90
63313;DHT22;49442;45.640;13.812;2024-02-16T05:44:48;5.50;99.90
63313;DHT22;49442;45.640;13.812;2024-02-16T05:47:15;5.50;99.90
63313;DHT22;49442;45.640;13.812;2024-02-16T05:49:41;5.30;99.90
63313;DHT22;49442;45.640;13.812;2024-02-16T05:52:07;5.20;99.90
63313;DHT22;49442;45.640;13.812;2024-02-16T05:54:45;5.10;99.90
63313;DHT22;49442;45.640;13.812;2024-02-16T05:57:11;5.10;99.90
63313;DHT22;49442;45.640;13.812;2024-02-16T05:59:38;5.10;99.90
63313;DHT22;49442;45.640;13.812;2024-02-16T06:02:04;5.10;99.90
63313;DHT22;49442;45.640;13.812;2024-02-16T06:04:31;5.10;99.90
63313;DHT22;49442;45.640;13.812;2024-02-16T06:06:57;5.20;99.90
63313;DHT22;49442;45.640;13.812;2024-02-16T06:09:22;5.20;99.90
63313;DHT22;49442;45.640;13.812;2024-02-16T06:11:48;5.20;99.90
63313;DHT22;49442;45.640;13.812;2024-02-16T06:14:14;5.10;99.90
63313;DHT22;49442;45.640;13.812;2024-02-16T06:16:40;5.00;99.90
63313;DHT22;49442;45.640;13.812;2024-02-16T06:19:08;5.00;99.90
63313;DHT22;49442;45.640;13.812;2024-02-16T06:21:35;4.90;99.90
63313;DHT22;49442;45.640;13.812;2024-02-16T06:24:01;4.90;99.90
63313;DHT22;49442;45.640;13.812;2024-02-16T06:26:26;4.90;99.90
63313;DHT22;49442;45.640;13.812;2024-02-16T06:28:52;4.90;99.90
63313;DHT22;49442;45.640;13.812;2024-02-16T06:31:18;4.90;99.90
63313;DHT22;49442;45.640;13.812;2024-02-16T06:33:43;4.90;99.90
63313;DHT22;49442;45.640;13.812;2024-02-16T06:36:09;4.90;99.90
63313;DHT22;49442;45.640;13.812;2024-02-16T06:38:36;5.00;99.90
63313;DHT22;49442;45.640;13.812;2024-02-16T06:41:03;5.00;99.90
63313;DHT22;49442;45.640;13.812;2024-02-16T06:43:29;5.00;99.90
63313;DHT22;49442;45.640;13.812;2024-02-16T06:45:55;5.00;99.90
63313;DHT22;49442;45.640;13.812;2024-02-16T06:48:22;5.10;99.90
63313;DHT22;49442;45.640;13.812;2024-02-16T06:50:48;5.10;99.90
63313;DHT22;49442;45.640;13.812;2024-02-16T06:53:14;5.20;99.90
63313;DHT22;49442;45.640;13.812;2024-02-16T06:55:40;5.20;99.90
63313;DHT22;49442;45.640;13.812;2024-02-16T06:58:05;5.20;99.90
63313;DHT22;49442;45.640;13.812;2024-02-16T07:00:31;5.20;99.90
63313;DHT22;49442;45.640;13.812;2024-02-16T07:02:57;5.20;99.90
63313;DHT22;49442;45.640;13.812;2024-02-16T07:05:23;5.30;99.90
63313;DHT22;49442;45.640;13.812;2024-02-16T07:07:48;5.30;99.90
63313;DHT22;49442;45.640;13.812;2024-02-16T07:10:15;5.30;99.90
63313;DHT22;49442;45.640;13.812;2024-02-16T07:12:41;5.40;99.90
63313;DHT22;49442;45.640;13.812;2024-02-16T07:15:08;5.50;99.90
63313;DHT22;49442;45.640;13.812;2024-02-16T07:17:34;5.60;99.90
63313;DHT22;49442;45.640;13.812;2024-02-16T07:20:00;5.70;99.90
63313;DHT22;49442;45.640;13.812;2024-02-16T07:22:29;5.70;99.90
63313;DHT22;49442;45.640;13.812;2024-02-16T07:24:55;5.80;99.90
63313;DHT22;49442;45.640;13.812;2024-02-16T07:27:20;6.00;99.90
63313;DHT22;49442;45.640;13.812;2024-02-16T07:29:46;6.00;99.90
63313;DHT22;49442;45.640;13.812;2024-02-16T07:32:12;6.10;99.90
63313;DHT22;49442;45.640;13.812;2024-02-16T07:34:38;6.20;99.90
63313;DHT22;49442;45.640;13.812;2024-02-16T07:37:04;6.20;99.90
63313;DHT22;49442;45.640;13.812;2024-02-16T07:39:29;6.30;99.90
63313;DHT22;49442;45.640;13.812;2024-02-16T07:41:56;6.40;99.90
63313;DHT22;49442;45.640;13.812;2024-02-16T07:44:21;6.40;99.90
63313;DHT22;49442;45.640;13.812;2024-02-16T07:46:47;6.50;99.90
63313;DHT22;49442;45.640;13.812;2024-02-16T07:49:15;6.50;99.90
63313;DHT22;49442;45.640;13.812;2024-02-16T07:51:40;6.60;99.90
63313;DHT22;49442;45.640;13.812;2024-02-16T07:54:07;6.70;99.90
63313;DHT22;49442;45.640;13.812;2024-02-16T07:56:33;6.80;99.90
63313;DHT22;49442;45.640;13.812;2024-02-16T07:58:59;6.90;99.90
63313;DHT22;49442;45.640;13.812;2024-02-16T08:01:25;7.00;99.90
63313;DHT22;49442;45.640;13.812;2024-02-16T08:03:51;7.10;99.90
63313;DHT22;49442;45.640;13.812;2024-02-16T08:06:18;7.20;99.90
63313;DHT22;49442;45.640;13.812;2024-02-16T08:08:49;7.40;99.90
63313;DHT22;49442;45.640;13.812;2024-02-16T08:11:14;7.60;99.90
63313;DHT22;49442;45.640;13.812;2024-02-16T08:13:40;7.70;99.90
63313;DHT22;49442;45.640;13.812;2024-02-16T08:16:06;7.90;99.90
63313;DHT22;49442;45.640;13.812;2024-02-16T08:18:33;8.10;99.90
63313;DHT22;49442;45.640;13.812;2024-02-16T08:20:59;8.20;99.90
63313;DHT22;49442;45.640;13.812;2024-02-16T08:23:25;8.40;99.90
63313;DHT22;49442;45.640;13.812;2024-02-16T08:25:50;8.60;99.90
63313;DHT22;49442;45.640;13.812;2024-02-16T08:28:16;8.80;99.90
63313;DHT22;49442;45.640;13.812;2024-02-16T08:30:42;9.00;99.90
63313;DHT22;49442;45.640;13.812;2024-02-16T08:33:10;9.30;99.90
63313;DHT22;49442;45.640;13.812;2024-02-16T08:35:36;9.70;99.90
63313;DHT22;49442;45.640;13.812;2024-02-16T08:38:03;10.10;99.90
63313;DHT22;49442;45.640;13.812;2024-02-16T08:40:29;10.30;99.90
63313;DHT22;49442;45.640;13.812;2024-02-16T08:42:54;10.90;99.90
63313;DHT22;49442;45.640;13.812;2024-02-16T08:45:21;11.40;99.90
63313;DHT22;49442;45.640;13.812;2024-02-16T08:47:46;11.60;99.90
63313;DHT22;49442;45.640;13.812;2024-02-16T08:50:12;12.30;99.90
63313;DHT22;49442;45.640;13.812;2024-02-16T08:52:38;12.80;99.90
63313;DHT22;49442;45.640;13.812;2024-02-16T08:55:04;13.10;99.90
63313;DHT22;49442;45.640;13.812;2024-02-16T08:57:33;12.90;99.90
63313;DHT22;49442;45.640;13.812;2024-02-16T08:59:59;12.70;99.90
63313;DHT22;49442;45.640;13.812;2024-02-16T09:02:24;12.70;99.90
63313;DHT22;49442;45.640;13.812;2024-02-16T09:04:50;13.20;99.90
63313;DHT22;49442;45.640;13.812;2024-02-16T09:07:16;13.10;99.90
63313;DHT22;49442;45.640;13.812;2024-02-16T09:09:41;13.10;99.90
63313;DHT22;49442;45.640;13.812;2024-02-16T09:12:07;13.10;99.90
63313;DHT22;49442;45.640;13.812;2024-02-16T09:14:33;13.20;99.90
63313;DHT22;49442;45.640;13.812;2024-02-16T09:16:59;13.30;99.90
63313;DHT22;49442;45.640;13.812;2024-02-16T09:19:24;13.40;99.90
63313;DHT22;49442;45.640;13.812;2024-02-16T09:21:50;13.50;99.90
63313;DHT22;49442;45.640;13.812;2024-02-16T09:24:17;13.70;99.90
63313;DHT22;49442;45.640;13.812;2024-02-16T09:26:46;13.80;99.90
63313;DHT22;49442;45.640;13.812;2024-02-16T09:29:13;14.10;99.90
63313;DHT22;49442;45.640;13.812;2024-02-16T09:31:42;14.20;99.90
63313;DHT22;49442;45.640;13.812;2024-02-16T09:34:08;14.40;99.90
63313;DHT22;49442;45.640;13.812;2024-02-16T09:36:33;14.70;99.90
63313;DHT22;49442;45.640;13.812;2024-02-16T09:39:01;14.90;99.90
63313;DHT22;49442;45.640;13.812;2024-02-16T09:41:27;15.30;99.90
63313;DHT22;49442;45.640;13.812;2024-02-16T09:43:54;16.10;99.90
63313;DHT22;49442;45.640;13.812;2024-02-16T09:46:21;16.80;99.90
63313;DHT22;49442;45.640;13.812;2024-02-16T09:48:49;18.10;99.90
63313;DHT22;49442;45.640;13.812;2024-02-16T09:51:18;19.30;99.90
63313;DHT22;49442;45.640;13.812;2024-02-16T09:53:45;20.30;99.90
63313;DHT22;49442;45.640;13.812;2024-02-16T09:56:17;21.40;99.90
63313;DHT22;49442;45.640;13.812;2024-02-16T09:58:43;21.80;99.90
63313;DHT22;49442;45.640;13.812;2024-02-16T10:01:20;22.10;97.90
63313;DHT22;49442;45.640;13.812;2024-02-16T10:03:46;22.00;96.00
63313;DHT22;49442;45.640;13.812;2024-02-16T10:06:12;22.10;95.40
63313;DHT22;49442;45.640;13.812;2024-02-16T10:08:51;22.30;95.50
63313;DHT22;49442;45.640;13.812;2024-02-16T10:11:19;22.30;95.10
63313;DHT22;49442;45.640;13.812;2024-02-16T10:13:58;22.20;93.90
63313;DHT22;49442;45.640;13.812;2024-02-16T10:16:24;22.50;93.80
63313;DHT22;49442;45.640;13.812;2024-02-16T10:18:50;23.00;92.70
63313;DHT22;49442;45.640;13.812;2024-02-16T10:21:29;22.80;91.90
63313;DHT22;49442;45.640;13.812;2024-02-16T10:23:59;23.30;91.90
63313;DHT22;49442;45.640;13.812;2024-02-16T10:26:26;23.70;90.80
63313;DHT22;49442;45.640;13.812;2024-02-16T10:28:55;23.80;89.30
63313;DHT22;49442;45.640;13.812;2024-02-16T10:31:23;24.00;88.70
63313;DHT22;49442;45.640;13.812;2024-02-16T10:34:00;23.90;87.80
63313;DHT22;49442;45.640;13.812;2024-02-16T10:36:32;23.90;86.80
63313;DHT22;49442;45.640;13.812;2024-02-16T10:38:58;24.00;85.60
63313;DHT22;49442;45.640;13.812;2024-02-16T10:41:28;23.80;85.90
63313;DHT22;49442;45.640;13.812;2024-02-16T10:43:56;23.90;84.90
63313;DHT22;49442;45.640;13.812;2024-02-16T10:46:23;24.20;86.20
63313;DHT22;49442;45.640;13.812;2024-02-16T10:48:52;24.50;82.80
63313;DHT22;49442;45.640;13.812;2024-02-16T10:51:22;25.00;81.90
63313;DHT22;49442;45.640;13.812;2024-02-16T10:53:52;24.30;82.20
63313;DHT22;49442;45.640;13.812;2024-02-16T10:56:36;24.50;81.90
63313;DHT22;49442;45.640;13.812;2024-02-16T10:59:07;23.70;81.10
63313;DHT22;49442;45.640;13.812;2024-02-16T11:01:37;22.60;83.70
63313;DHT22;49442;45.640;13.812;2024-02-16T11:04:07;20.80;89.00
63313;DHT22;49442;45.640;13.812;2024-02-16T11:06:55;19.80;91.40
63313;DHT22;49442;45.640;13.812;2024-02-16T11:09:38;20.60;91.70
63313;DHT22;49442;45.640;13.812;2024-02-16T11:12:05;21.70;90.10
63313;DHT22;49442;45.640;13.812;2024-02-16T11:14:40;22.10;87.10
63313;DHT22;49442;45.640;13.812;2024-02-16T11:17:09;22.30;85.20
63313;DHT22;49442;45.640;13.812;2024-02-16T11:19:36;22.20;85.70
63313;DHT22;49442;45.640;13.812;2024-02-16T11:22:05;22.10;85.40
63313;DHT22;49442;45.640;13.812;2024-02-16T11:24:42;22.40;84.50
63313;DHT22;49442;45.640;13.812;2024-02-16T11:27:10;22.00;84.10
63313;DHT22;49442;45.640;13.812;2024-02-16T11:29:36;22.10;86.40
63313;DHT22;49442;45.640;13.812;2024-02-16T11:32:04;22.60;84.70
63313;DHT22;49442;45.640;13.812;2024-02-16T11:34:31;22.60;83.50
63313;DHT22;49442;45.640;13.812;2024-02-16T11:37:01;23.20;82.20
63313;DHT22;49442;45.640;13.812;2024-02-16T11:39:29;23.50;81.40
63313;DHT22;49442;45.640;13.812;2024-02-16T11:42:04;23.60;79.40
63313;DHT22;49442;45.640;13.812;2024-02-16T11:44:34;23.50;79.30
63313;DHT22;49442;45.640;13.812;2024-02-16T11:47:02;24.10;78.40
63313;DHT22;49442;45.640;13.812;2024-02-16T11:49:32;24.40;77.20
63313;DHT22;49442;45.640;13.812;2024-02-16T11:52:00;24.30;75.90
63313;DHT22;49442;45.640;13.812;2024-02-16T11:54:26;24.20;76.10
63313;DHT22;49442;45.640;13.812;2024-02-16T11:56:52;23.90;76.10
63313;DHT22;49442;45.640;13.812;2024-02-16T11:59:19;24.00;77.60
63313;DHT22;49442;45.640;13.812;2024-02-16T12:01:55;23.80;77.10
63313;DHT22;49442;45.640;13.812;2024-02-16T12:04:28;23.00;78.50
63313;DHT22;49442;45.640;13.812;2024-02-16T12:06:58;20.60;83.50
63313;DHT22;49442;45.640;13.812;2024-02-16T12:09:25;19.10;88.20
63313;DHT22;49442;45.640;13.812;2024-02-16T12:11:52;18.10;89.50
63313;DHT22;49442;45.640;13.812;2024-02-16T12:14:19;17.30;91.60
63313;DHT22;49442;45.640;13.812;2024-02-16T12:16:48;16.60;94.40
63313;DHT22;49442;45.640;13.812;2024-02-16T12:19:15;16.20;96.30
63313;DHT22;49442;45.640;13.812;2024-02-16T12:21:41;15.80;97.70
63313;DHT22;49442;45.640;13.812;2024-02-16T12:24:07;15.50;99.20
63313;DHT22;49442;45.640;13.812;2024-02-16T12:26:33;15.30;99.90
63313;DHT22;49442;45.640;13.812;2024-02-16T12:28:59;15.20;99.90
63313;DHT22;49442;45.640;13.812;2024-02-16T12:31:24;15.20;99.90
63313;DHT22;49442;45.640;13.812;2024-02-16T12:33:52;15.10;99.90
63313;DHT22;49442;45.640;13.812;2024-02-16T12:36:17;15.10;99.90
63313;DHT22;49442;45.640;13.812;2024-02-16T12:38:43;15.10;99.90
63313;DHT22;49442;45.640;13.812;2024-02-16T12:41:09;15.20;99.90
63313;DHT22;49442;45.640;13.812;2024-02-16T12:43:35;15.20;99.90
63313;DHT22;49442;45.640;13.812;2024-02-16T12:46:02;15.20;99.90
63313;DHT22;49442;45.640;13.812;2024-02-16T12:48:29;15.20;99.90
63313;DHT22;49442;45.640;13.812;2024-02-16T12:50:55;15.20;99.90
63313;DHT22;49442;45.640;13.812;2024-02-16T12:53:22;15.20;99.90
63313;DHT22;49442;45.640;13.812;2024-02-16T12:55:50;15.10;99.90
63313;DHT22;49442;45.640;13.812;2024-02-16T12:58:16;15.20;99.90
63313;DHT22;49442;45.640;13.812;2024-02-16T13:00:41;15.20;99.90
63313;DHT22;49442;45.640;13.812;2024-02-16T13:03:07;15.20;99.90
63313;DHT22;49442;45.640;13.812;2024-02-16T13:05:33;15.20;99.90
63313;DHT22;49442;45.640;13.812;2024-02-16T13:08:00;15.20;99.90
63313;DHT22;49442;45.640;13.812;2024-02-16T13:10:25;15.20;99.90
63313;DHT22;49442;45.640;13.812;2024-02-16T13:12:51;15.20;99.90
63313;DHT22;49442;45.640;13.812;2024-02-16T13:15:17;15.20;99.90
63313;DHT22;49442;45.640;13.812;2024-02-16T13:17:42;15.30;99.90
63313;DHT22;49442;45.640;13.812;2024-02-16T13:20:08;15.20;99.90
63313;DHT22;49442;45.640;13.812;2024-02-16T13:22:37;15.20;99.90
63313;DHT22;49442;45.640;13.812;2024-02-16T13:25:06;15.10;99.90
63313;DHT22;49442;45.640;13.812;2024-02-16T13:27:32;15.00;99.90
63313;DHT22;49442;45.640;13.812;2024-02-16T13:29:59;15.00;99.90
63313;DHT22;49442;45.640;13.812;2024-02-16T13:32:25;15.00;99.90
63313;DHT22;49442;45.640;13.812;2024-02-16T13:34:51;15.00;99.90
63313;DHT22;49442;45.640;13.812;2024-02-16T13:37:17;14.90;99.90
63313;DHT22;49442;45.640;13.812;2024-02-16T13:39:42;15.00;99.90
63313;DHT22;49442;45.640;13.812;2024-02-16T13:42:08;15.10;99.90
63313;DHT22;49442;45.640;13.812;2024-02-16T13:44:34;15.10;99.90
63313;DHT22;49442;45.640;13.812;2024-02-16T13:47:00;15.20;99.90
63313;DHT22;49442;45.640;13.812;2024-02-16T13:49:26;15.40;99.90
63313;DHT22;49442;45.640;13.812;2024-02-16T13:51:52;15.40;99.90
63313;DHT22;49442;45.640;13.812;2024-02-16T13:54:17;15.40;99.90
63313;DHT22;49442;45.640;13.812;2024-02-16T13:56:43;17.00;99.90
63313;DHT22;49442;45.640;13.812;2024-02-16T13:59:09;19.50;99.20
63313;DHT22;49442;45.640;13.812;2024-02-16T14:01:35;20.80;96.20
63313;DHT22;49442;45.640;13.812;2024-02-16T14:04:01;21.40;94.10
63313;DHT22;49442;45.640;13.812;2024-02-16T14:06:28;20.70;93.40
63313;DHT22;49442;45.640;13.812;2024-02-16T14:08:54;18.50;95.20
63313;DHT22;49442;45.640;13.812;2024-02-16T14:11:21;17.50;97.60
63313;DHT22;49442;45.640;13.812;2024-02-16T14:13:48;17.00;99.10
63313;DHT22;49442;45.640;13.812;2024-02-16T14:16:14;16.60;99.70
63313;DHT22;49442;45.640;13.812;2024-02-16T14:18:40;16.30;99.90
63313;DHT22;49442;45.640;13.812;2024-02-16T14:21:05;16.00;99.90
63313;DHT22;49442;45.640;13.812;2024-02-16T14:23:32;16.00;99.90
63313;DHT22;49442;45.640;13.812;2024-02-16T14:25:58;15.80;99.90
63313;DHT22;49442;45.640;13.812;2024-02-16T14:28:24;15.70;99.90
63313;DHT22;49442;45.640;13.812;2024-02-16T14:30:50;15.90;99.90
63313;DHT22;49442;45.640;13.812;2024-02-16T14:33:16;17.30;99.90
63313;DHT22;49442;45.640;13.812;2024-02-16T14:35:45;18.10;99.70
63313;DHT22;49442;45.640;13.812;2024-02-16T14:38:11;18.60;97.70
63313;DHT22;49442;45.640;13.812;2024-02-16T14:40:38;18.80;97.00
63313;DHT22;49442;45.640;13.812;2024-02-16T14:43:04;19.00;97.10
63313;DHT22;49442;45.640;13.812;2024-02-16T14:45:30;19.00;96.30
63313;DHT22;49442;45.640;13.812;2024-02-16T14:47:56;18.60;96.50
63313;DHT22;49442;45.640;13.812;2024-02-16T14:50:23;18.60;97.00
63313;DHT22;49442;45.640;13.812;2024-02-16T14:52:49;18.30;96.60
63313;DHT22;49442;45.640;13.812;2024-02-16T14:55:15;17.60;97.90
63313;DHT22;49442;45.640;13.812;2024-02-16T14:57:42;16.80;99.10
63313;DHT22;49442;45.640;13.812;2024-02-16T15:00:10;16.90;99.90
63313;DHT22;49442;45.640;13.812;2024-02-16T15:02:37;17.20;99.40
63313;DHT22;49442;45.640;13.812;2024-02-16T15:05:06;17.40;99.30
63313;DHT22;49442;45.640;13.812;2024-02-16T15:07:32;17.50;98.80
63313;DHT22;49442;45.640;13.812;2024-02-16T15:09:58;17.60;98.90
63313;DHT22;49442;45.640;13.812;2024-02-16T15:12:24;17.60;98.90
63313;DHT22;49442;45.640;13.812;2024-02-16T15:14:50;17.40;98.70
63313;DHT22;49442;45.640;13.812;2024-02-16T15:17:15;17.20;98.80
63313;DHT22;49442;45.640;13.812;2024-02-16T15:19:42;16.90;99.20
63313;DHT22;49442;45.640;13.812;2024-02-16T15:22:08;16.50;99.90